Terminal Aerodrome Forecast
Issued by NWS Sterling, VA

Current Version | Previous Version | Graphics & Text | Print | Product List | Glossary Off
Versions: 1 2 3 4 5 6 7 8 9 10 11 12 13 14 15 16 17 18 19 20 21 22 23

444
FTUS41 KLWX 310531
TAFDCA
TAF
KDCA 310531Z 3106/0106 VRB03KT P6SM BKN015
     FM310700 00000KT 6SM BR OVC009
     FM311100 VRB03KT 6SM BR SCT015
     FM311300 05004KT P6SM FEW050 FEW250
     FM312300 15004KT P6SM SCT250=

USA.gov is the U.S. government's official web portal to all federal, state and local government web resources and services.